METAR Data
IDs: Format: Raw Decoded Include TAF

Data at: 1040 UTC 21 Oct 2019

METAR for:KAUS (Austin/Bergstrom Int, TX, US)
Text:KAUS 210953Z 00000KT 10SM FEW080 BKN100 BKN120 20/18 A2973 RMK AO2 RAE17 SLP058 P0003 T02000183 $
Temperature: 20.0°C ( 68°F)
Dewpoint: 18.3°C ( 65°F) [RH = 90%]
Pressure (altimeter):29.73 inches Hg (1006.9 mb) [Sea level pressure: 1005.8 mb]
Winds:calm
Visibility:10 or more sm (16+ km)
Ceiling:10000 feet AGL
Clouds: few clouds at 8000 feet AGL, broken clouds at 10000 feet AGL, broken clouds at 12000 feet AGL
QC Flag:SOME DATA ABOVE MAY BE INACCURATE!!!"$" is an indication the sensor requires maintenance.